Time;durP1;ratioP1;P1;durP2;ratioP2;P2;SDS_P1;SDS_P2;PMS_P1;PMS_P2;Temp;Humidity;BMP_temperature;BMP_pressure;BME280_temperature;BME280_humidity;BME280_pressure;Samples;Min_cycle;Max_cycle;Signal;HPM_P1;HPM_P2
2022/06/23 00:02:24;;;;;;;21.95;7.93;;;;;;;18.16;70.03;101153.22;5032478;28;20308;-46
2022/06/23 00:04:54;;;;;;;18.55;8.50;;;;;;;18.05;72.43;101141.09;5037177;28;20093;-47
2022/06/23 00:07:26;;;;;;;21.73;8.43;;;;;;;18.02;73.78;101146.09;5035949;28;20447;-47
2022/06/23 00:09:57;;;;;;;23.30;8.65;;;;;;;17.98;74.51;101142.97;5036327;28;20029;-46
2022/06/23 00:12:31;;;;;;;22.08;9.23;;;;;;;17.96;75.21;101144.22;5036744;28;20500;-44
2022/06/23 00:15:27;;;;;;;16.92;8.70;;;;;;;17.96;75.29;101139.63;5036467;28;20036;-44
2022/06/23 00:17:58;;;;;;;27.13;9.40;;;;;;;17.89;77.13;101136.91;5018181;28;20437;-45
2022/06/23 00:20:46;;;;;;;20.63;9.23;;;;;;;17.93;75.57;101140.03;5036064;28;20495;-46
2022/06/23 00:23:24;;;;;;;21.50;9.98;;;;;;;17.93;78.87;101140.03;5020186;28;20049;-45
2022/06/23 00:26:17;;;;;;;21.58;9.95;;;;;;;17.91;79.55;101139.41;5036552;28;20167;-47
2022/06/23 00:28:50;;;;;;;22.27;9.77;;;;;;;17.87;79.66;101139.00;5036496;28;20108;-45
2022/06/23 00:31:57;;;;;;;22.85;10.68;;;;;;;17.89;78.33;101125.28;5035042;28;20024;-45
2022/06/23 00:34:36;;;;;;;24.42;10.82;;;;;;;17.82;81.13;101125.22;4977348;28;20825;-50
2022/06/23 00:37:04;;;;;;;25.13;12.13;;;;;;;17.78;83.14;101126.63;5034612;28;20379;-47
2022/06/23 00:39:51;;;;;;;29.65;11.48;;;;;;;17.81;84.56;101133.53;5031269;28;20014;-47
2022/06/23 00:42:32;;;;;;;29.75;11.57;;;;;;;17.74;84.76;101138.06;5029084;28;20181;-46
2022/06/23 00:45:04;;;;;;;22.30;11.57;;;;;;;17.73;85.87;101131.00;5036018;28;20048;-47
2022/06/23 00:47:47;;;;;;;25.25;11.68;;;;;;;17.74;85.24;101141.59;5035447;28;20107;-49
2022/06/23 00:50:44;;;;;;;29.95;12.30;;;;;;;17.72;85.51;101138.28;5035368;28;20241;-45
2022/06/23 00:53:12;;;;;;;28.17;11.07;;;;;;;17.66;88.75;101134.50;5034177;28;20029;-47
2022/06/23 00:55:46;;;;;;;26.15;11.20;;;;;;;17.68;88.89;101131.59;5035444;28;20424;-50
2022/06/23 00:58:34;;;;;;;26.85;11.80;;;;;;;17.67;87.79;101138.03;5034424;28;20169;-48
2022/06/23 01:01:16;;;;;;;23.50;11.80;;;;;;;17.60;89.73;101134.44;5035457;28;20025;-45
2022/06/23 01:04:01;;;;;;;28.40;11.55;;;;;;;17.58;90.97;101126.56;5034478;28;20033;-48
2022/06/23 01:06:40;;;;;;;26.50;11.68;;;;;;;17.55;91.40;101126.13;5032220;28;20021;-49
2022/06/23 01:09:33;;;;;;;30.75;12.35;;;;;;;17.52;91.67;101125.50;5033870;28;20025;-47
2022/06/23 01:12:04;;;;;;;30.55;11.43;;;;;;;17.55;92.34;101118.88;5003455;28;20446;-49
2022/06/23 01:14:41;;;;;;;28.48;11.65;;;;;;;17.52;92.17;101122.78;5035581;28;20460;-47
2022/06/23 01:17:21;;;;;;;32.08;12.98;;;;;;;17.48;94.04;101113.44;5034065;28;20351;-48
2022/06/23 01:20:16;;;;;;;30.58;12.38;;;;;;;17.43;94.19;101118.59;5034656;28;20473;-47
2022/06/23 01:22:51;;;;;;;36.33;12.50;;;;;;;17.40;95.32;101121.69;5033829;28;20021;-47
2022/06/23 01:25:34;;;;;;;24.98;11.85;;;;;;;17.36;95.49;101109.63;5033612;28;20072;-46
2022/06/23 01:28:02;;;;;;;29.95;11.90;;;;;;;17.36;96.30;101104.22;5027124;28;20368;-45
2022/06/23 01:30:34;;;;;;;25.27;12.07;;;;;;;17.26;98.07;101103.75;5035133;28;20036;-44
2022/06/23 01:33:07;;;;;;;31.40;12.40;;;;;;;17.27;99.44;101100.84;5033786;28;20317;-46
2022/06/23 01:35:43;;;;;;;33.17;12.90;;;;;;;17.27;98.96;101108.13;5027493;28;20040;-47
2022/06/23 01:38:19;;;;;;;26.17;12.75;;;;;;;17.22;99.45;101105.19;5033233;28;20032;-49
2022/06/23 01:40:57;;;;;;;26.00;12.27;;;;;;;17.25;99.32;101111.03;5033807;28;20055;-47
2022/06/23 01:43:29;;;;;;;26.80;12.93;;;;;;;17.21;100.00;101117.00;5008641;28;20130;-45
2022/06/23 01:45:57;;;;;;;33.30;13.20;;;;;;;17.16;100.00;101114.94;5003889;28;20028;-48
2022/06/23 01:51:23;;;;;;;33.35;12.68;;;;;;;17.17;100.00;101115.75;5023123;28;20098;-48
2022/06/23 01:53:51;;;;;;;33.03;13.40;;;;;;;17.12;100.00;101117.19;5019820;28;20385;-49
2022/06/23 01:56:26;;;;;;;31.98;12.93;;;;;;;17.13;100.00;101118.00;5016037;28;20147;-49
2022/06/23 01:59:00;;;;;;;27.83;12.35;;;;;;;17.07;100.00;101121.50;5034402;28;20131;-47
2022/06/23 02:01:37;;;;;;;25.98;12.95;;;;;;;17.04;100.00;101111.09;5034627;28;20016;-47
2022/06/23 02:04:13;;;;;;;31.38;12.82;;;;;;;17.04;100.00;101111.94;5034048;28;20035;-48
2022/06/23 02:06:49;;;;;;;29.77;12.52;;;;;;;17.01;100.00;101106.94;5032521;28;20052;-49
2022/06/23 02:09:38;;;;;;;28.25;12.80;;;;;;;17.02;100.00;101111.28;5033430;28;20464;-47
2022/06/23 02:12:15;;;;;;;25.90;12.48;;;;;;;17.00;100.00;101104.44;5024474;28;20035;-49
2022/06/23 02:14:50;;;;;;;26.27;13.00;;;;;;;16.99;100.00;101100.91;5034800;28;20033;-49
2022/06/23 02:17:38;;;;;;;26.83;12.52;;;;;;;16.99;100.00;101103.59;5034398;28;20216;-47
2022/06/23 02:20:32;;;;;;;27.95;12.65;;;;;;;16.98;100.00;101103.78;5020034;28;20029;-49
2022/06/23 02:23:37;;;;;;;30.05;12.63;;;;;;;17.02;98.79;101107.75;5032927;28;20428;-51
2022/06/23 02:26:16;;;;;;;27.42;12.50;;;;;;;16.95;99.96;101105.88;5024842;28;20485;-47
2022/06/23 02:28:59;;;;;;;25.67;12.40;;;;;;;16.92;100.00;101108.09;5022781;28;20563;-45
2022/06/23 02:31:37;;;;;;;30.70;12.73;;;;;;;16.88;100.00;101109.53;5034462;28;20460;-46
2022/06/23 02:34:10;;;;;;;28.45;13.68;;;;;;;16.84;100.00;101103.69;5033861;28;20037;-49
2022/06/23 02:36:41;;;;;;;26.67;13.73;;;;;;;16.81;100.00;101104.06;5033304;28;20750;-48
2022/06/23 02:39:19;;;;;;;30.88;13.38;;;;;;;16.78;100.00;101097.19;5037347;28;20025;-48
2022/06/23 02:41:55;;;;;;;32.25;13.25;;;;;;;16.75;100.00;101097.59;5037265;28;20020;-48
2022/06/23 02:44:45;;;;;;;31.40;13.88;;;;;;;16.76;100.00;101101.94;5029099;28;20058;-46
2022/06/23 02:47:45;;;;;;;27.75;13.80;;;;;;;16.70;100.00;101100.03;5036735;28;20094;-47
2022/06/23 02:50:30;;;;;;;37.50;14.15;;;;;;;16.70;100.00;101101.88;4965740;28;20114;-48
2022/06/23 02:53:17;;;;;;;28.33;13.18;;;;;;;16.69;100.00;101097.53;5018569;28;20106;-49
2022/06/23 02:56:03;;;;;;;31.70;13.75;;;;;;;16.66;100.00;101093.34;5036202;28;20691;-46
2022/06/23 02:58:35;;;;;;;34.38;13.77;;;;;;;16.63;100.00;101093.72;5037916;28;20484;-45
2022/06/23 03:01:06;;;;;;;32.85;13.25;;;;;;;16.55;100.00;101085.81;5037873;28;20300;-49
2022/06/23 03:03:51;;;;;;;;;;;;;;;16.65;96.22;101083.63;5038441;28;20128;-48
2022/06/23 03:06:41;;;;;;;25.35;12.70;;;;;;;16.59;100.00;101082.50;5025261;28;19916;-47
2022/06/23 03:09:17;;;;;;;25.27;13.93;;;;;;;16.57;100.00;101089.13;5037370;28;20408;-47
2022/06/23 03:11:52;;;;;;;36.38;14.18;;;;;;;16.57;100.00;101083.75;5036312;28;20433;-45
2022/06/23 03:14:56;;;;;;;28.92;13.73;;;;;;;16.54;100.00;101082.25;5037371;28;20029;-50
2022/06/23 03:17:49;;;;;;;35.58;13.73;;;;;;;16.52;100.00;101078.09;5035162;28;20474;-48
2022/06/23 03:20:26;;;;;;;33.80;13.95;;;;;;;16.46;100.00;101073.47;5019566;28;20025;-47
2022/06/23 03:23:03;;;;;;;27.33;13.63;;;;;;;16.42;100.00;101068.47;5035019;28;20029;-47
2022/06/23 03:25:37;;;;;;;36.97;14.05;;;;;;;16.37;100.00;101076.31;5037107;28;20132;-49
2022/06/23 03:28:13;;;;;;;38.97;15.23;;;;;;;16.35;100.00;101067.59;5036440;28;20432;-47
2022/06/23 03:30:53;;;;;;;36.15;14.68;;;;;;;16.30;100.00;101064.63;5036539;28;20025;-48
2022/06/23 03:33:31;;;;;;;34.60;13.93;;;;;;;16.30;100.00;101061.94;5037095;28;20104;-50
2022/06/23 03:36:14;;;;;;;38.15;14.45;;;;;;;16.27;100.00;101054.25;5034895;28;20047;-49
2022/06/23 03:42:33;;;;;;;32.10;13.50;;;;;;;16.28;100.00;101064.00;5023016;28;20047;-47
2022/06/23 03:45:20;;;;;;;28.15;13.60;;;;;;;16.27;100.00;101066.91;5022461;28;20017;-46
2022/06/23 03:48:02;;;;;;;26.85;13.07;;;;;;;16.23;100.00;101067.28;5036226;28;20036;-48
2022/06/23 03:50:59;;;;;;;33.33;13.43;;;;;;;16.28;100.00;101069.41;5036885;28;20017;-46
2022/06/23 03:53:32;;;;;;;25.30;13.05;;;;;;;16.28;100.00;101063.19;5034294;28;20492;-46
2022/06/23 03:56:17;;;;;;;30.80;12.65;;;;;;;16.29;99.93;101062.13;5036228;28;20013;-49
2022/06/23 03:58:45;;;;;;;25.20;12.63;;;;;;;16.29;99.56;101070.22;5036312;28;20155;-46
2022/06/23 04:01:14;;;;;;;25.58;12.65;;;;;;;16.33;98.97;101072.34;5036970;28;20029;-46
2022/06/23 04:03:59;;;;;;;21.20;12.63;;;;;;;16.38;98.31;101075.28;5036452;28;20428;-49
2022/06/23 04:06:37;;;;;;;28.90;12.63;;;;;;;16.43;97.42;101085.50;5035535;28;20490;-49
2022/06/23 04:09:10;;;;;;;26.67;12.20;;;;;;;16.40;96.51;101080.50;5036182;28;20764;-50
2022/06/23 04:12:13;;;;;;;25.20;12.38;;;;;;;16.46;95.51;101081.56;5035906;28;20051;-47
2022/06/23 04:15:00;;;;;;;25.65;12.23;;;;;;;16.50;95.14;101078.28;5004401;28;20040;-50
2022/06/23 04:17:34;;;;;;;26.85;12.75;;;;;;;16.48;95.37;101068.72;5035919;28;20739;-49
2022/06/23 04:20:03;;;;;;;28.33;12.98;;;;;;;16.52;94.44;101070.00;5036478;28;20024;-47
2022/06/23 04:22:40;;;;;;;26.00;12.80;;;;;;;16.55;93.80;101064.25;5032511;28;20383;-48
2022/06/23 04:25:11;;;;;;;25.85;11.75;;;;;;;16.55;92.85;101067.75;5030509;28;20056;-48
2022/06/23 04:27:41;;;;;;;24.70;12.10;;;;;;;16.63;93.80;101068.66;5032198;28;20249;-49
2022/06/23 04:30:17;;;;;;;24.55;11.80;;;;;;;16.65;92.86;101072.81;5019160;28;20460;-48
2022/06/23 04:32:42;;;;;;;30.45;12.02;;;;;;;16.68;92.87;101068.88;5033945;28;20467;-49
2022/06/23 04:35:15;;;;;;;24.67;12.00;;;;;;;16.72;90.83;101073.69;5030335;28;20045;-50
2022/06/23 04:37:49;;;;;;;28.20;12.10;;;;;;;16.75;90.92;101084.09;5027134;28;20356;-46
2022/06/23 04:40:17;;;;;;;25.67;11.65;;;;;;;16.78;90.33;101074.78;5030009;28;20021;-49
2022/06/23 04:42:53;;;;;;;27.05;11.38;;;;;;;16.77;89.87;101067.72;5032934;28;20107;-45
2022/06/23 04:45:29;;;;;;;21.52;11.32;;;;;;;16.86;89.21;101076.53;5015821;28;20021;-44
2022/06/23 04:47:57;;;;;;;21.65;11.40;;;;;;;16.87;89.65;101079.03;5032078;28;20444;-48
2022/06/23 04:50:39;;;;;;;27.13;11.02;;;;;;;16.90;88.80;101061.59;5031689;28;20384;-47
2022/06/23 04:53:05;;;;;;;24.38;11.13;;;;;;;16.94;88.30;101062.91;5032848;28;20042;-49
2022/06/23 04:55:34;;;;;;;22.70;11.60;;;;;;;16.95;88.68;101061.84;5020359;28;20667;-44
2022/06/23 04:58:07;;;;;;;22.33;11.05;;;;;;;17.01;87.53;101065.63;5011238;28;20078;-46
2022/06/23 05:00:39;;;;;;;23.52;10.90;;;;;;;17.04;87.98;101090.34;5030940;28;20539;-50
2022/06/23 05:03:18;;;;;;;24.65;11.50;;;;;;;17.08;87.36;101080.00;5030810;28;20036;-46
2022/06/23 05:05:43;;;;;;;23.85;12.10;;;;;;;17.12;86.85;101075.84;5012781;28;20010;-46
2022/06/23 05:08:26;;;;;;;28.10;11.25;;;;;;;17.19;86.56;101081.28;5029854;28;20367;-47
2022/06/23 05:10:54;;;;;;;22.85;11.98;;;;;;;17.26;86.83;101087.56;5030884;28;20480;-49
2022/06/23 05:13:27;;;;;;;28.02;11.75;;;;;;;17.29;86.30;101082.63;5033914;28;20033;-50
2022/06/23 05:16:06;;;;;;;24.88;12.10;;;;;;;17.37;85.49;101084.28;5028313;28;20386;-47
2022/06/23 05:18:38;;;;;;;21.38;12.00;;;;;;;17.40;85.12;101081.19;5022734;28;20028;-47
2022/06/23 05:21:23;;;;;;;27.00;12.40;;;;;;;17.51;86.30;101082.50;5029797;28;20942;-47
2022/06/23 05:23:48;;;;;;;18.98;11.20;;;;;;;17.55;84.16;101075.66;5033005;28;20141;-49
2022/06/23 05:26:22;;;;;;;25.17;12.40;;;;;;;17.58;84.09;101075.25;5016880;28;20435;-46
2022/06/23 05:28:53;;;;;;;22.88;11.63;;;;;;;17.69;84.31;101081.94;5014723;28;20294;-49
2022/06/23 05:31:23;;;;;;;33.25;12.57;;;;;;;17.76;83.32;101092.78;5031876;28;20052;-47
2022/06/23 05:33:53;;;;;;;25.13;12.15;;;;;;;17.83;83.85;101085.53;5031716;28;20028;-45
2022/06/23 05:36:26;;;;;;;20.77;11.90;;;;;;;17.91;82.96;101081.84;5028060;28;20024;-50
2022/06/23 05:39:00;;;;;;;29.08;12.98;;;;;;;18.00;82.69;101084.13;5031687;28;20021;-49
2022/06/23 05:41:34;;;;;;;25.42;11.88;;;;;;;18.07;80.55;101073.34;5029929;28;20028;-45
2022/06/23 05:44:04;;;;;;;22.70;12.15;;;;;;;18.15;80.91;101072.31;5030102;28;20021;-49
2022/06/23 05:46:32;;;;;;;25.00;13.20;;;;;;;18.18;79.84;101074.63;5031307;28;20013;-50
2022/06/23 05:49:06;;;;;;;22.75;12.38;;;;;;;18.30;79.79;101074.84;5008294;28;20553;-48
2022/06/23 05:51:47;;;;;;;26.88;12.35;;;;;;;18.39;80.27;101070.88;5004627;28;20481;-47
2022/06/23 05:54:21;;;;;;;27.27;12.70;;;;;;;18.46;78.95;101071.72;5030239;28;20515;-48
2022/06/23 05:56:49;;;;;;;25.77;12.70;;;;;;;18.59;79.24;101077.13;5003399;28;20480;-48
2022/06/23 05:59:17;;;;;;;23.05;12.45;;;;;;;18.65;76.90;101080.84;5028688;28;20710;-48
2022/06/23 06:01:50;;;;;;;21.52;11.98;;;;;;;18.77;78.29;101078.34;5030458;28;20025;-47
2022/06/23 06:04:31;;;;;;;25.92;12.35;;;;;;;18.86;77.57;101081.72;5028706;28;20021;-48
2022/06/23 06:06:58;;;;;;;34.58;12.35;;;;;;;19.00;77.92;101078.78;5013388;28;20142;-48
2022/06/23 06:09:36;;;;;;;26.48;12.18;;;;;;;19.06;77.96;101079.81;5030154;28;20295;-47
2022/06/23 06:12:12;;;;;;;21.17;12.20;;;;;;;19.20;78.33;101078.72;5035125;28;20043;-47
2022/06/23 06:14:47;;;;;;;26.75;13.13;;;;;;;19.33;76.58;101083.28;5029440;28;20029;-48
2022/06/23 06:17:21;;;;;;;28.17;13.23;;;;;;;19.47;76.55;101086.78;5018619;28;20049;-49
2022/06/23 06:19:49;;;;;;;25.20;12.68;;;;;;;19.57;75.54;101079.03;5035576;28;20044;-49
2022/06/23 06:22:40;;;;;;;23.20;12.70;;;;;;;19.73;75.25;101069.56;5023512;28;20033;-50
2022/06/23 06:25:15;;;;;;;28.42;12.88;;;;;;;19.82;75.77;101074.75;5017117;28;20452;-48
2022/06/23 06:27:40;;;;;;;30.40;13.48;;;;;;;19.96;73.50;101078.22;5016753;28;20057;-50
2022/06/23 06:30:16;;;;;;;25.80;12.88;;;;;;;20.06;72.77;101075.84;5017992;28;20108;-51
2022/06/23 06:32:42;;;;;;;23.35;13.20;;;;;;;20.09;70.98;101073.53;5016934;28;20442;-49
2022/06/23 06:35:36;;;;;;;21.95;12.63;;;;;;;20.23;71.44;101074.31;5018456;28;20024;-49
2022/06/23 06:38:09;;;;;;;27.13;12.65;;;;;;;20.41;71.56;101078.94;5017459;28;20518;-50
2022/06/23 06:40:37;;;;;;;23.67;13.27;;;;;;;20.54;69.66;101067.16;5027646;28;20112;-49
2022/06/23 06:43:07;;;;;;;26.42;13.15;;;;;;;20.65;68.80;101069.16;5012535;28;20090;-48
2022/06/23 06:45:35;;;;;;;30.80;12.73;;;;;;;20.82;69.71;101072.13;5023424;28;20522;-52
2022/06/23 06:48:03;;;;;;;28.05;12.88;;;;;;;20.87;67.72;101079.63;5037673;28;20035;-47
2022/06/23 06:50:52;;;;;;;21.70;11.75;;;;;;;21.03;69.25;101087.19;5037974;28;20472;-49
2022/06/23 06:53:34;;;;;;;27.77;12.07;;;;;;;21.18;67.47;101077.84;5018464;28;20075;-48
2022/06/23 06:56:11;;;;;;;22.55;11.52;;;;;;;21.38;67.89;101074.91;5037811;28;20126;-48
2022/06/23 06:58:43;;;;;;;24.17;12.00;;;;;;;21.51;66.85;101073.94;5037855;28;20029;-48
2022/06/23 07:01:19;;;;;;;25.25;11.45;;;;;;;21.64;66.13;101075.66;5037271;28;20094;-49
2022/06/23 07:03:47;;;;;;;23.77;12.05;;;;;;;21.88;66.64;101079.31;5037467;28;20469;-50
2022/06/23 07:06:21;;;;;;;23.55;11.57;;;;;;;21.93;63.78;101077.56;5037185;28;20029;-49
2022/06/23 07:08:54;;;;;;;24.60;12.00;;;;;;;22.08;65.45;101076.28;5037636;28;20033;-45
2022/06/23 07:11:44;;;;;;;24.27;11.35;;;;;;;22.28;65.72;101073.31;5036607;28;20439;-48
2022/06/23 07:14:23;;;;;;;27.27;11.85;;;;;;;22.45;64.87;101076.16;5031339;28;20048;-48
2022/06/23 07:17:03;;;;;;;22.92;11.07;;;;;;;22.54;66.64;101078.31;5018058;28;20053;-47
2022/06/23 07:19:34;;;;;;;;;;;;;;;22.77;67.10;101084.84;5017535;28;20026;-47
2022/06/23 07:22:18;;;;;;;27.57;12.37;;;;;;;22.78;61.31;101096.56;5015597;28;20405;-48
2022/06/23 07:25:09;;;;;;;27.95;11.10;;;;;;;22.91;63.50;101090.88;5016211;28;20284;-50
2022/06/23 07:27:58;;;;;;;27.60;11.82;;;;;;;23.02;62.60;101092.75;5016883;28;20052;-48
2022/06/23 07:30:32;;;;;;;27.73;11.75;;;;;;;23.07;61.96;101090.19;5017473;28;20022;-51
2022/06/23 07:33:13;;;;;;;26.13;13.30;;;;;;;23.09;60.99;101093.50;5018730;28;20435;-46
2022/06/23 07:35:51;;;;;;;27.13;12.98;;;;;;;23.14;61.69;101092.78;5016600;28;20029;-47
2022/06/23 07:38:29;;;;;;;29.70;13.43;;;;;;;23.23;61.50;101088.59;5006067;28;20029;-49
2022/06/23 07:40:57;;;;;;;26.73;13.48;;;;;;;23.28;61.56;101090.63;5018660;28;20013;-47
2022/06/23 07:43:23;;;;;;;24.27;12.77;;;;;;;23.42;60.45;101078.41;5016889;28;20070;-48
2022/06/23 07:45:56;;;;;;;29.33;14.23;;;;;;;23.48;61.28;101082.03;5025581;28;20164;-48
2022/06/23 07:48:22;;;;;;;30.77;13.35;;;;;;;23.62;61.86;101075.22;5036525;28;20036;-51
2022/06/23 07:50:48;;;;;;;28.15;13.00;;;;;;;23.78;62.36;101075.56;5018218;28;20642;-48
2022/06/23 07:53:19;;;;;;;27.45;14.57;;;;;;;23.90;60.74;101081.00;5018432;28;20082;-47
2022/06/23 07:55:45;;;;;;;27.08;14.57;;;;;;;24.08;63.12;101086.22;5036827;28;20180;-48
2022/06/23 07:58:14;;;;;;;27.10;15.45;;;;;;;24.10;60.37;101080.50;5036308;28;20450;-48
2022/06/23 08:00:42;;;;;;;32.15;15.02;;;;;;;24.14;61.73;101076.22;5036766;28;20025;-49
2022/06/23 08:03:14;;;;;;;27.77;14.25;;;;;;;24.32;61.06;101077.88;5035387;28;20041;-48
2022/06/23 08:05:54;;;;;;;29.75;14.90;;;;;;;24.53;61.62;101074.41;5035860;28;20368;-49
2022/06/23 08:08:23;;;;;;;34.88;15.32;;;;;;;24.67;60.64;101074.94;5036436;28;20028;-47
2022/06/23 08:12:53;;;;;;;31.08;15.55;;;;;;;24.69;60.06;101075.50;5036661;28;20245;-47
2022/06/23 08:13:40;;;;;;;27.58;15.00;;;;;;;24.82;61.79;101077.06;5036627;28;20446;-49
2022/06/23 08:19:13;;;;;;;36.05;17.20;;;;;;;25.03;59.66;101072.72;5035690;28;20207;-48
2022/06/23 08:21:44;;;;;;;28.70;15.30;;;;;;;25.19;64.05;101057.38;5035207;28;20275;-48
2022/06/23 08:24:17;;;;;;;33.63;16.08;;;;;;;25.24;59.88;101067.53;5036348;28;20021;-50
2022/06/23 08:26:47;;;;;;;36.05;15.23;;;;;;;25.40;60.65;101060.38;5034291;28;20021;-51
2022/06/23 08:29:16;;;;;;;33.53;15.02;;;;;;;25.53;60.44;101056.41;5034154;28;20424;-50
2022/06/23 08:31:42;;;;;;;33.40;16.15;;;;;;;25.64;59.60;101059.00;5018243;28;20078;-50
2022/06/23 08:34:09;;;;;;;32.17;16.98;;;;;;;25.68;58.86;101057.41;5031849;28;20025;-48
2022/06/23 08:36:45;;;;;;;41.53;15.52;;;;;;;25.89;60.64;101065.84;5013405;28;20029;-49
2022/06/23 08:39:20;;;;;;;36.20;16.55;;;;;;;25.96;60.62;101060.19;5032277;28;20116;-49
2022/06/23 08:42:15;;;;;;;35.25;15.60;;;;;;;26.09;58.90;101067.13;5008571;28;20155;-50
2022/06/23 08:45:01;;;;;;;31.67;15.65;;;;;;;26.13;58.85;101060.06;5014911;28;20052;-49
2022/06/23 08:47:44;;;;;;;26.98;14.55;;;;;;;26.26;59.44;101059.66;5022232;28;20111;-50
2022/06/23 08:50:28;;;;;;;31.70;14.60;;;;;;;26.21;58.81;101059.59;5037661;28;20024;-52
2022/06/23 08:53:21;;;;;;;32.75;14.93;;;;;;;26.39;59.63;101061.09;5035543;28;20029;-50
2022/06/23 08:55:54;;;;;;;33.67;15.77;;;;;;;26.47;58.03;101057.88;5035738;28;20511;-49
2022/06/23 08:59:12;;;;;;;30.33;14.38;;;;;;;26.64;59.98;101070.63;5037176;28;20362;-51
2022/06/23 09:01:50;;;;;;;31.90;15.88;;;;;;;26.27;57.15;101054.97;4964260;28;20044;-48
2022/06/23 09:04:52;;;;;;;28.95;13.70;;;;;;;26.49;61.16;101060.34;4967463;28;20175;-48
2022/06/23 09:07:23;;;;;;;31.33;12.18;;;;;;;26.88;64.16;101062.84;5022513;28;20124;-52
2022/06/23 09:09:53;;;;;;;27.00;12.85;;;;;;;26.95;57.25;101049.72;5035515;28;20514;-52
2022/06/23 09:12:30;;;;;;;21.50;10.98;;;;;;;27.15;57.79;101058.03;5024143;28;20109;-49
2022/06/23 09:15:15;;;;;;;29.80;11.85;;;;;;;27.23;56.71;101051.22;5003084;28;20037;-49
2022/06/23 09:17:59;;;;;;;27.60;11.45;;;;;;;27.38;57.44;101053.25;5015251;28;20051;-51
2022/06/23 09:20:33;;;;;;;28.63;12.40;;;;;;;27.58;56.24;101048.91;5014721;28;20055;-51
2022/06/23 09:23:16;;;;;;;23.25;11.73;;;;;;;27.56;54.72;101043.69;5015153;28;20025;-50
2022/06/23 09:25:53;;;;;;;32.72;11.27;;;;;;;27.48;54.05;101044.22;5030532;28;20223;-48
2022/06/23 09:28:28;;;;;;;24.40;9.98;;;;;;;27.38;54.67;101038.69;5030887;28;20025;-50
2022/06/23 09:31:03;;;;;;;38.72;14.57;;;;;;;27.41;56.53;101047.22;5033104;28;20463;-51
2022/06/23 09:33:46;;;;;;;29.02;10.25;;;;;;;27.68;56.78;101044.28;5026864;28;20098;-50
2022/06/23 09:36:34;;;;;;;25.67;10.10;;;;;;;27.87;53.36;101046.50;5013925;28;20120;-50
2022/06/23 09:39:36;;;;;;;27.63;10.05;;;;;;;27.84;53.25;101031.38;5014483;28;20492;-51
2022/06/23 09:42:18;;;;;;;22.17;9.13;;;;;;;28.05;53.69;101042.41;5008825;28;20216;-52
2022/06/23 09:45:07;;;;;;;22.45;8.60;;;;;;;28.38;54.18;101029.25;5026981;28;20471;-51
2022/06/23 09:48:09;;;;;;;25.02;6.82;;;;;;;28.68;52.50;101036.63;5034411;28;20092;-52
2022/06/23 09:51:01;;;;;;;24.83;6.18;;;;;;;28.56;50.72;101031.41;5033829;28;20415;-51
2022/06/23 09:54:21;;;;;;;21.92;5.72;;;;;;;28.68;53.08;101025.63;5034225;28;20036;-50
2022/06/23 09:57:05;;;;;;;16.13;5.20;;;;;;;28.38;50.95;101018.25;4971798;28;20490;-50
2022/06/23 09:59:36;;;;;;;21.00;5.55;;;;;;;28.49;51.57;101022.63;5019673;28;20055;-51
2022/06/23 10:02:10;;;;;;;19.45;5.40;;;;;;;28.62;51.10;101024.00;5034399;28;20142;-51
2022/06/23 10:04:48;;;;;;;20.58;4.88;;;;;;;28.84;50.73;101010.75;5033615;28;20033;-50
2022/06/23 10:07:23;;;;;;;21.50;5.90;;;;;;;28.93;50.09;101019.22;5033603;28;20130;-50
2022/06/23 10:10:00;;;;;;;19.98;4.95;;;;;;;29.20;51.01;101016.13;5035293;28;20024;-48
2022/06/23 10:12:44;;;;;;;27.92;5.30;;;;;;;29.13;49.05;101009.28;5014973;28;20712;-50
2022/06/23 10:15:36;;;;;;;19.17;5.47;;;;;;;29.27;50.13;101009.50;5033975;28;20021;-52
2022/06/23 10:18:20;;;;;;;19.33;5.38;;;;;;;29.50;50.36;101011.56;5019640;28;20021;-52
2022/06/23 10:20:55;;;;;;;21.70;5.28;;;;;;;29.84;50.07;101004.47;5029351;28;20494;-49
2022/06/23 10:23:29;;;;;;;16.95;5.80;;;;;;;30.18;49.45;101007.25;5029903;28;20025;-51
2022/06/23 10:26:33;;;;;;;23.27;5.60;;;;;;;30.28;47.57;101012.66;5028942;28;20554;-52
2022/06/23 10:29:13;;;;;;;21.67;5.25;;;;;;;30.53;47.13;101001.69;5034651;28;20106;-51
2022/06/23 10:31:57;;;;;;;;;;;;;;;30.72;46.14;101010.88;5035243;28;20028;-52
2022/06/23 10:34:52;;;;;;;24.38;5.25;;;;;;;30.68;47.55;101007.03;5034617;28;20340;-51
2022/06/23 10:37:39;;;;;;;32.17;5.45;;;;;;;30.45;47.42;101008.69;5032978;28;20037;-52
2022/06/23 10:40:31;;;;;;;23.85;5.63;;;;;;;30.97;46.58;101014.44;5022797;28;20155;-51
2022/06/23 10:43:09;;;;;;;23.20;5.90;;;;;;;31.09;45.72;101003.00;5029407;28;20048;-53
2022/06/23 10:45:56;;;;;;;31.92;5.72;;;;;;;30.87;45.43;100993.28;5023774;28;20466;-51
2022/06/23 10:48:40;;;;;;;28.20;6.85;;;;;;;30.38;46.92;100998.00;5033431;28;20067;-51
2022/06/23 10:51:30;;;;;;;25.08;5.65;;;;;;;30.38;48.88;100986.13;5033715;28;20509;-50
2022/06/23 10:54:19;;;;;;;27.40;6.30;;;;;;;30.34;48.46;100988.63;5033247;28;20140;-50
2022/06/23 10:57:11;;;;;;;22.97;6.50;;;;;;;30.52;48.99;100989.00;5033653;28;20072;-48
2022/06/23 10:59:40;;;;;;;19.63;5.85;;;;;;;30.58;47.19;100987.84;5036969;28;20410;-51
2022/06/23 11:02:08;;;;;;;35.25;7.10;;;;;;;30.31;47.75;100986.44;5037861;28;20029;-49
2022/06/23 11:04:36;;;;;;;27.45;6.72;;;;;;;30.15;48.98;100988.53;5038072;28;20515;-50
2022/06/23 11:07:36;;;;;;;21.75;6.70;;;;;;;30.31;49.50;100981.78;5036820;28;20325;-49
2022/06/23 11:10:21;;;;;;;31.95;7.03;;;;;;;30.63;48.81;100987.78;5037706;28;20053;-51
2022/06/23 11:12:58;;;;;;;24.92;7.47;;;;;;;30.67;48.04;100980.59;5037476;28;20780;-48
2022/06/23 11:15:52;;;;;;;25.83;6.80;;;;;;;31.05;48.92;100986.22;5019700;28;20143;-50
2022/06/23 11:18:35;;;;;;;21.85;8.02;;;;;;;30.91;47.00;100976.97;5026119;28;20158;-49
2022/06/23 11:21:49;;;;;;;24.58;6.40;;;;;;;31.12;47.32;100980.34;5018584;28;20021;-47
2022/06/23 11:24:50;;;;;;;33.40;6.53;;;;;;;30.96;46.08;100976.94;5013671;28;20037;-47
2022/06/23 11:27:34;;;;;;;21.17;6.88;;;;;;;30.93;46.40;100980.28;5036882;28;20221;-47
2022/06/23 11:30:27;;;;;;;22.08;6.68;;;;;;;30.76;46.30;100973.31;5024994;28;20051;-51
2022/06/23 11:33:20;;;;;;;21.13;6.32;;;;;;;31.03;45.99;100969.97;5036895;28;20021;-50
2022/06/23 11:36:04;;;;;;;20.05;6.30;;;;;;;31.19;46.15;100972.50;5036388;28;20112;-49
2022/06/23 11:38:54;;;;;;;18.15;6.43;;;;;;;30.91;46.10;100968.69;5024099;28;20045;-47
2022/06/23 11:41:29;;;;;;;22.58;7.13;;;;;;;30.77;47.25;100965.84;5036700;28;20032;-51
2022/06/23 11:44:09;;;;;;;25.38;7.20;;;;;;;30.91;47.66;100965.94;5031476;28;20112;-48
2022/06/23 11:46:40;;;;;;;18.63;6.07;;;;;;;30.92;44.91;100962.88;5030841;28;20413;-49
2022/06/23 11:49:30;;;;;;;21.95;5.97;;;;;;;31.30;44.29;100964.88;5036705;28;20100;-48
2022/06/23 11:52:21;;;;;;;22.83;6.53;;;;;;;31.21;43.82;100964.75;5035838;28;20044;-50
2022/06/23 11:54:53;;;;;;;26.05;6.20;;;;;;;31.02;44.63;100965.53;5019346;28;20048;-49
2022/06/23 11:57:28;;;;;;;16.85;5.60;;;;;;;31.02;45.08;100964.72;5036358;28;20281;-50
2022/06/23 12:00:08;;;;;;;20.58;5.68;;;;;;;31.21;45.46;100962.00;5036914;28;20458;-46
2022/06/23 12:02:42;;;;;;;;;;;;;;;31.50;44.64;100956.38;5028960;28;20304;-49
2022/06/23 12:05:19;;;;;;;22.88;5.43;;;;;;;31.51;44.40;100952.47;5016051;28;20578;-49
2022/06/23 12:08:11;;;;;;;21.73;5.90;;;;;;;31.63;43.02;100942.91;5018324;28;20055;-51
2022/06/23 12:10:37;;;;;;;26.13;5.95;;;;;;;31.69;43.75;100949.97;5033200;28;20043;-52
2022/06/23 12:13:03;;;;;;;27.00;6.07;;;;;;;31.89;43.00;100949.66;5019624;28;20031;-52
2022/06/23 12:15:33;;;;;;;20.80;5.72;;;;;;;32.05;41.11;100941.91;5028032;28;20025;-50